sensor_id;sensor_type;location;lat;lon;timestamp;pressure;altitude;pressure_sealevel;temperature;humidity
14204;BME280;7185;51.854;6.622;2023-10-09T00:01:11;101687.06;;;17.11;81.62
14204;BME280;7185;51.854;6.622;2023-10-09T00:03:48;101677.19;;;17.16;82.12
14204;BME280;7185;51.854;6.622;2023-10-09T00:06:31;101681.31;;;17.27;81.27
14204;BME280;7185;51.854;6.622;2023-10-09T00:09:15;101688.09;;;17.37;80.79
14204;BME280;7185;51.854;6.622;2023-10-09T00:12:06;101679.25;;;17.36;81.19
14204;BME280;7185;51.854;6.622;2023-10-09T00:14:56;101677.38;;;17.40;81.29
14204;BME280;7185;51.854;6.622;2023-10-09T00:17:48;101678.16;;;17.44;81.10
14204;BME280;7185;51.854;6.622;2023-10-09T00:20:29;101673.84;;;17.41;81.11
14204;BME280;7185;51.854;6.622;2023-10-09T00:23:11;101661.41;;;17.43;81.69
14204;BME280;7185;51.854;6.622;2023-10-09T00:25:52;101658.13;;;17.35;82.52
14204;BME280;7185;51.854;6.622;2023-10-09T00:28:43;101650.88;;;17.40;82.08
14204;BME280;7185;51.854;6.622;2023-10-09T00:31:23;101648.41;;;17.34;82.99
14204;BME280;7185;51.854;6.622;2023-10-09T00:34:04;101657.47;;;17.57;81.86
14204;BME280;7185;51.854;6.622;2023-10-09T00:36:57;101664.00;;;17.73;81.00
14204;BME280;7185;51.854;6.622;2023-10-09T00:39:35;101668.78;;;17.62;81.30
14204;BME280;7185;51.854;6.622;2023-10-09T00:42:15;101665.28;;;17.61;81.62
14204;BME280;7185;51.854;6.622;2023-10-09T00:45:03;101666.78;;;17.40;82.38
14204;BME280;7185;51.854;6.622;2023-10-09T00:47:47;101661.28;;;17.46;82.20
14204;BME280;7185;51.854;6.622;2023-10-09T00:50:27;101665.38;;;17.58;81.91
14204;BME280;7185;51.854;6.622;2023-10-09T00:53:06;101661.84;;;17.58;82.40
14204;BME280;7185;51.854;6.622;2023-10-09T00:55:48;101664.41;;;17.61;82.11
14204;BME280;7185;51.854;6.622;2023-10-09T00:58:31;101662.84;;;17.53;82.53
14204;BME280;7185;51.854;6.622;2023-10-09T01:01:12;101655.59;;;17.60;82.36
14204;BME280;7185;51.854;6.622;2023-10-09T01:03:47;101659.88;;;17.64;82.01
14204;BME280;7185;51.854;6.622;2023-10-09T01:06:28;101655.53;;;17.62;82.24
14204;BME280;7185;51.854;6.622;2023-10-09T01:09:04;101649.84;;;17.74;81.34
14204;BME280;7185;51.854;6.622;2023-10-09T01:11:45;101644.66;;;17.71;81.67
14204;BME280;7185;51.854;6.622;2023-10-09T01:14:34;101648.06;;;17.75;81.55
14204;BME280;7185;51.854;6.622;2023-10-09T01:17:13;101634.81;;;17.75;81.76
14204;BME280;7185;51.854;6.622;2023-10-09T01:20:12;101636.56;;;17.74;82.00
14204;BME280;7185;51.854;6.622;2023-10-09T01:22:47;101633.13;;;17.72;81.91
14204;BME280;7185;51.854;6.622;2023-10-09T01:25:26;101633.91;;;17.76;81.85
14204;BME280;7185;51.854;6.622;2023-10-09T01:28:12;101633.22;;;17.69;82.35
14204;BME280;7185;51.854;6.622;2023-10-09T01:30:46;101648.91;;;17.75;81.46
14204;BME280;7185;51.854;6.622;2023-10-09T01:33:45;101642.63;;;17.79;81.08
14204;BME280;7185;51.854;6.622;2023-10-09T01:36:22;101647.94;;;17.79;81.64
14204;BME280;7185;51.854;6.622;2023-10-09T01:39:05;101642.06;;;17.68;82.52
14204;BME280;7185;51.854;6.622;2023-10-09T01:41:53;101642.31;;;17.60;82.89
14204;BME280;7185;51.854;6.622;2023-10-09T01:44:36;101635.94;;;17.66;83.39
14204;BME280;7185;51.854;6.622;2023-10-09T01:47:15;101638.22;;;17.78;82.55
14204;BME280;7185;51.854;6.622;2023-10-09T01:49:55;101625.09;;;17.74;83.31
14204;BME280;7185;51.854;6.622;2023-10-09T01:52:35;101622.00;;;17.88;82.54
14204;BME280;7185;51.854;6.622;2023-10-09T01:55:29;101629.09;;;17.87;83.03
14204;BME280;7185;51.854;6.622;2023-10-09T01:58:17;101629.63;;;17.98;82.31
14204;BME280;7185;51.854;6.622;2023-10-09T02:00:57;101631.53;;;17.95;82.54
14204;BME280;7185;51.854;6.622;2023-10-09T02:03:35;101629.69;;;17.97;82.34
14204;BME280;7185;51.854;6.622;2023-10-09T02:06:12;101636.81;;;17.95;82.58
14204;BME280;7185;51.854;6.622;2023-10-09T02:09:01;101621.09;;;17.89;83.12
14204;BME280;7185;51.854;6.622;2023-10-09T02:12:03;101627.22;;;17.91;82.84
14204;BME280;7185;51.854;6.622;2023-10-09T02:14:40;101617.50;;;17.90;83.82
14204;BME280;7185;51.854;6.622;2023-10-09T02:17:18;101620.69;;;18.01;83.07
14204;BME280;7185;51.854;6.622;2023-10-09T02:19:55;101612.66;;;18.04;83.45
14204;BME280;7185;51.854;6.622;2023-10-09T02:22:32;101610.00;;;18.04;83.06
14204;BME280;7185;51.854;6.622;2023-10-09T02:25:11;101600.25;;;18.05;83.14
14204;BME280;7185;51.854;6.622;2023-10-09T02:30:41;101607.03;;;18.13;82.47
14204;BME280;7185;51.854;6.622;2023-10-09T02:33:18;101602.66;;;18.12;82.29
14204;BME280;7185;51.854;6.622;2023-10-09T02:36:06;101592.59;;;17.95;84.19
14204;BME280;7185;51.854;6.622;2023-10-09T02:38:49;101586.03;;;18.07;83.53
14204;BME280;7185;51.854;6.622;2023-10-09T02:41:24;101585.19;;;18.05;84.04
14204;BME280;7185;51.854;6.622;2023-10-09T02:44:10;101582.69;;;18.00;84.03
14204;BME280;7185;51.854;6.622;2023-10-09T02:46:56;101592.09;;;18.11;83.34
14204;BME280;7185;51.854;6.622;2023-10-09T02:49:36;101579.59;;;18.14;83.03
14204;BME280;7185;51.854;6.622;2023-10-09T02:52:14;101583.03;;;18.16;83.23
14204;BME280;7185;51.854;6.622;2023-10-09T02:55:08;101565.50;;;18.12;83.36
14204;BME280;7185;51.854;6.622;2023-10-09T02:57:55;101575.25;;;18.37;82.38
14204;BME280;7185;51.854;6.622;2023-10-09T03:00:38;101567.06;;;18.43;81.98
14204;BME280;7185;51.854;6.622;2023-10-09T03:03:34;101558.75;;;18.29;82.59
14204;BME280;7185;51.854;6.622;2023-10-09T03:06:19;101557.84;;;18.28;82.73
14204;BME280;7185;51.854;6.622;2023-10-09T03:09:09;101556.34;;;18.21;83.16
14204;BME280;7185;51.854;6.622;2023-10-09T03:12:03;101552.50;;;18.30;82.81
14204;BME280;7185;51.854;6.622;2023-10-09T03:14:56;101548.00;;;18.32;82.28
14204;BME280;7185;51.854;6.622;2023-10-09T03:17:44;101549.34;;;18.19;82.65
14204;BME280;7185;51.854;6.622;2023-10-09T03:20:33;101548.22;;;18.26;83.41
14204;BME280;7185;51.854;6.622;2023-10-09T03:23:20;101545.84;;;18.18;83.41
14204;BME280;7185;51.854;6.622;2023-10-09T03:26:05;101537.88;;;18.18;83.45
14204;BME280;7185;51.854;6.622;2023-10-09T03:28:54;101531.69;;;18.18;83.65
14204;BME280;7185;51.854;6.622;2023-10-09T03:31:35;101533.97;;;18.28;82.93
14204;BME280;7185;51.854;6.622;2023-10-09T03:34:13;101532.13;;;18.30;82.72
14204;BME280;7185;51.854;6.622;2023-10-09T03:36:49;101525.69;;;18.12;83.42
14204;BME280;7185;51.854;6.622;2023-10-09T03:39:34;101531.16;;;18.33;82.67
14204;BME280;7185;51.854;6.622;2023-10-09T03:42:12;101520.75;;;18.27;82.64
14204;BME280;7185;51.854;6.622;2023-10-09T03:44:55;101517.78;;;18.11;83.97
14204;BME280;7185;51.854;6.622;2023-10-09T03:47:46;101520.84;;;18.24;82.69
14204;BME280;7185;51.854;6.622;2023-10-09T03:50:35;101529.13;;;18.40;82.05
14204;BME280;7185;51.854;6.622;2023-10-09T03:53:46;101530.00;;;18.40;82.10
14204;BME280;7185;51.854;6.622;2023-10-09T03:56:25;101527.34;;;18.40;81.95
14204;BME280;7185;51.854;6.622;2023-10-09T03:59:02;101534.41;;;18.41;81.93
14204;BME280;7185;51.854;6.622;2023-10-09T04:04:49;101526.91;;;18.53;81.48
14204;BME280;7185;51.854;6.622;2023-10-09T04:07:22;101530.03;;;18.64;80.63
14204;BME280;7185;51.854;6.622;2023-10-09T04:14:36;101534.03;;;18.51;81.29
14204;BME280;7185;51.854;6.622;2023-10-09T04:17:22;101534.88;;;18.53;81.12
14204;BME280;7185;51.854;6.622;2023-10-09T04:20:25;101522.03;;;18.40;81.61
14204;BME280;7185;51.854;6.622;2023-10-09T04:23:19;101527.34;;;18.40;81.83
14204;BME280;7185;51.854;6.622;2023-10-09T04:26:30;101515.22;;;18.33;82.45
14204;BME280;7185;51.854;6.622;2023-10-09T04:29:11;101514.78;;;18.20;83.13
14204;BME280;7185;51.854;6.622;2023-10-09T04:32:00;101515.91;;;18.38;82.28
14204;BME280;7185;51.854;6.622;2023-10-09T04:34:50;101504.59;;;18.33;82.30
14204;BME280;7185;51.854;6.622;2023-10-09T04:37:48;101526.03;;;18.52;81.73
14204;BME280;7185;51.854;6.622;2023-10-09T04:40:36;101536.44;;;18.58;80.55
14204;BME280;7185;51.854;6.622;2023-10-09T04:43:22;101552.44;;;18.57;80.69
14204;BME280;7185;51.854;6.622;2023-10-09T04:45:53;101546.94;;;18.36;81.84
14204;BME280;7185;51.854;6.622;2023-10-09T04:49:03;101555.09;;;18.57;81.37
14204;BME280;7185;51.854;6.622;2023-10-09T04:52:00;101539.03;;;18.60;81.34
14204;BME280;7185;51.854;6.622;2023-10-09T04:54:39;101559.53;;;18.56;81.24
14204;BME280;7185;51.854;6.622;2023-10-09T04:57:36;101553.78;;;18.43;81.67
14204;BME280;7185;51.854;6.622;2023-10-09T05:00:31;101552.47;;;18.55;81.19
14204;BME280;7185;51.854;6.622;2023-10-09T05:03:34;101566.66;;;18.54;81.54
14204;BME280;7185;51.854;6.622;2023-10-09T05:06:17;101571.22;;;18.51;81.73
14204;BME280;7185;51.854;6.622;2023-10-09T05:08:51;101576.13;;;18.63;81.19
14204;BME280;7185;51.854;6.622;2023-10-09T05:11:25;101570.91;;;18.60;81.44
14204;BME280;7185;51.854;6.622;2023-10-09T05:14:05;101569.38;;;18.53;81.64
14204;BME280;7185;51.854;6.622;2023-10-09T05:16:42;101554.38;;;18.52;81.77
14204;BME280;7185;51.854;6.622;2023-10-09T05:19:24;101560.63;;;18.74;81.27
14204;BME280;7185;51.854;6.622;2023-10-09T05:22:13;101563.84;;;18.59;81.51
14204;BME280;7185;51.854;6.622;2023-10-09T05:24:59;101555.94;;;18.57;81.71
14204;BME280;7185;51.854;6.622;2023-10-09T05:27:31;101570.34;;;18.75;81.09
14204;BME280;7185;51.854;6.622;2023-10-09T05:30:20;101567.75;;;18.74;80.84
14204;BME280;7185;51.854;6.622;2023-10-09T05:33:04;101571.72;;;18.62;81.60
14204;BME280;7185;51.854;6.622;2023-10-09T05:35:49;101571.72;;;18.86;80.35
14204;BME280;7185;51.854;6.622;2023-10-09T05:38:37;101580.72;;;18.82;80.40
14204;BME280;7185;51.854;6.622;2023-10-09T05:41:16;101579.47;;;18.68;81.17
14204;BME280;7185;51.854;6.622;2023-10-09T05:44:18;101583.84;;;18.69;81.26
14204;BME280;7185;51.854;6.622;2023-10-09T05:47:07;101580.13;;;18.50;82.44
14204;BME280;7185;51.854;6.622;2023-10-09T05:49:56;101570.44;;;18.48;82.41
14204;BME280;7185;51.854;6.622;2023-10-09T05:52:54;101560.94;;;18.41;82.74
14204;BME280;7185;51.854;6.622;2023-10-09T05:55:37;101561.16;;;18.60;81.85
14204;BME280;7185;51.854;6.622;2023-10-09T05:58:26;101556.59;;;18.64;82.31
14204;BME280;7185;51.854;6.622;2023-10-09T06:01:15;101561.44;;;18.76;81.54
14204;BME280;7185;51.854;6.622;2023-10-09T06:04:05;101564.03;;;18.78;81.49
14204;BME280;7185;51.854;6.622;2023-10-09T06:06:46;101590.16;;;18.92;80.98
14204;BME280;7185;51.854;6.622;2023-10-09T06:09:26;101606.94;;;18.92;80.75
14204;BME280;7185;51.854;6.622;2023-10-09T06:12:21;101611.53;;;18.87;81.28
14204;BME280;7185;51.854;6.622;2023-10-09T06:15:19;101616.66;;;18.93;80.84
14204;BME280;7185;51.854;6.622;2023-10-09T06:18:02;101604.81;;;19.02;80.39
14204;BME280;7185;51.854;6.622;2023-10-09T06:20:56;101613.13;;;19.17;79.89
14204;BME280;7185;51.854;6.622;2023-10-09T06:24:01;101619.28;;;19.17;80.02
14204;BME280;7185;51.854;6.622;2023-10-09T06:26:46;101611.63;;;19.09;80.07
14204;BME280;7185;51.854;6.622;2023-10-09T06:29:40;101615.72;;;19.18;80.14
14204;BME280;7185;51.854;6.622;2023-10-09T06:32:26;101614.94;;;19.16;80.17
14204;BME280;7185;51.854;6.622;2023-10-09T06:35:07;101606.72;;;19.22;80.10
14204;BME280;7185;51.854;6.622;2023-10-09T06:37:47;101609.88;;;19.32;79.80
14204;BME280;7185;51.854;6.622;2023-10-09T06:40:37;101619.25;;;19.19;80.37
14204;BME280;7185;51.854;6.622;2023-10-09T06:43:27;101623.75;;;19.17;80.40
14204;BME280;7185;51.854;6.622;2023-10-09T06:46:00;101618.53;;;19.14;80.53
14204;BME280;7185;51.854;6.622;2023-10-09T06:48:45;101628.81;;;19.23;80.45
14204;BME280;7185;51.854;6.622;2023-10-09T06:51:26;101632.66;;;19.16;80.92
14204;BME280;7185;51.854;6.622;2023-10-09T06:54:12;101641.19;;;19.24;80.56
14204;BME280;7185;51.854;6.622;2023-10-09T06:56:45;101642.81;;;19.28;80.44
14204;BME280;7185;51.854;6.622;2023-10-09T06:59:34;101625.59;;;19.15;81.35
14204;BME280;7185;51.854;6.622;2023-10-09T07:02:36;101574.75;;;19.00;82.18
14204;BME280;7185;51.854;6.622;2023-10-09T07:05:16;101564.00;;;19.03;82.17
14204;BME280;7185;51.854;6.622;2023-10-09T07:07:48;101580.88;;;19.02;81.92
14204;BME280;7185;51.854;6.622;2023-10-09T07:10:25;101613.13;;;19.17;81.60
14204;BME280;7185;51.854;6.622;2023-10-09T07:13:10;101603.75;;;19.30;80.98
14204;BME280;7185;51.854;6.622;2023-10-09T07:15:42;101610.16;;;19.24;81.09
14204;BME280;7185;51.854;6.622;2023-10-09T07:18:33;101613.22;;;19.37;80.91
14204;BME280;7185;51.854;6.622;2023-10-09T07:21:19;101604.06;;;19.45;80.41
14204;BME280;7185;51.854;6.622;2023-10-09T07:23:58;101608.72;;;19.39;81.17
14204;BME280;7185;51.854;6.622;2023-10-09T07:26:44;101600.16;;;19.31;81.49
14204;BME280;7185;51.854;6.622;2023-10-09T07:29:23;101596.19;;;19.19;81.81
14204;BME280;7185;51.854;6.622;2023-10-09T07:31:58;101598.56;;;19.27;81.62
14204;BME280;7185;51.854;6.622;2023-10-09T07:34:44;101616.69;;;19.39;80.80
14204;BME280;7185;51.854;6.622;2023-10-09T07:37:26;101624.31;;;19.49;80.36
14204;BME280;7185;51.854;6.622;2023-10-09T07:40:06;101635.56;;;19.55;80.05
14204;BME280;7185;51.854;6.622;2023-10-09T07:42:39;101631.59;;;19.43;80.59
14204;BME280;7185;51.854;6.622;2023-10-09T07:45:23;101620.56;;;19.31;81.05
14204;BME280;7185;51.854;6.622;2023-10-09T07:48:14;101621.44;;;19.31;81.55
14204;BME280;7185;51.854;6.622;2023-10-09T07:50:57;101633.22;;;19.48;80.68
14204;BME280;7185;51.854;6.622;2023-10-09T07:53:29;101629.50;;;19.52;80.58
14204;BME280;7185;51.854;6.622;2023-10-09T07:56:13;101625.75;;;19.34;80.86
14204;BME280;7185;51.854;6.622;2023-10-09T07:58:53;101629.25;;;19.58;80.53
14204;BME280;7185;51.854;6.622;2023-10-09T08:01:30;101637.91;;;19.63;80.14
14204;BME280;7185;51.854;6.622;2023-10-09T08:04:09;101643.00;;;19.69;79.40
14204;BME280;7185;51.854;6.622;2023-10-09T08:06:45;101635.56;;;19.55;80.32
14204;BME280;7185;51.854;6.622;2023-10-09T08:09:15;101628.31;;;19.59;80.62
14204;BME280;7185;51.854;6.622;2023-10-09T08:12:09;101630.06;;;19.82;79.45
14204;BME280;7185;51.854;6.622;2023-10-09T08:15:01;101633.94;;;19.97;79.10
14204;BME280;7185;51.854;6.622;2023-10-09T08:17:51;101618.56;;;19.82;79.13
14204;BME280;7185;51.854;6.622;2023-10-09T08:20:30;101616.88;;;20.01;78.61
14204;BME280;7185;51.854;6.622;2023-10-09T08:23:23;101619.00;;;19.93;78.32
14204;BME280;7185;51.854;6.622;2023-10-09T08:25:59;101610.38;;;20.09;78.41
14204;BME280;7185;51.854;6.622;2023-10-09T08:28:44;101591.94;;;19.82;79.10
14204;BME280;7185;51.854;6.622;2023-10-09T08:31:16;101598.38;;;19.98;79.13
14204;BME280;7185;51.854;6.622;2023-10-09T08:34:06;101594.41;;;20.09;78.29
14204;BME280;7185;51.854;6.622;2023-10-09T08:36:40;101583.22;;;20.00;78.29
14204;BME280;7185;51.854;6.622;2023-10-09T08:39:21;101576.22;;;19.98;78.85
14204;BME280;7185;51.854;6.622;2023-10-09T08:42:05;101566.25;;;19.81;80.02
14204;BME280;7185;51.854;6.622;2023-10-09T08:44:41;101561.25;;;19.95;79.54
14204;BME280;7185;51.854;6.622;2023-10-09T08:47:15;101556.31;;;19.64;80.56
14204;BME280;7185;51.854;6.622;2023-10-09T08:49:47;101549.69;;;19.96;79.61
14204;BME280;7185;51.854;6.622;2023-10-09T08:52:19;101551.53;;;20.15;78.80
14204;BME280;7185;51.854;6.622;2023-10-09T08:54:52;101550.53;;;19.97;79.64
14204;BME280;7185;51.854;6.622;2023-10-09T08:57:24;101546.94;;;20.39;77.81
14204;BME280;7185;51.854;6.622;2023-10-09T08:59:57;101549.41;;;20.44;77.14
14204;BME280;7185;51.854;6.622;2023-10-09T09:02:29;101567.63;;;20.53;76.40
14204;BME280;7185;51.854;6.622;2023-10-09T09:05:16;101589.03;;;20.70;76.26
14204;BME280;7185;51.854;6.622;2023-10-09T09:07:51;101585.63;;;20.88;75.89
14204;BME280;7185;51.854;6.622;2023-10-09T09:10:31;101586.25;;;21.13;74.55
14204;BME280;7185;51.854;6.622;2023-10-09T09:13:14;101604.97;;;21.12;74.59
14204;BME280;7185;51.854;6.622;2023-10-09T09:15:49;101599.63;;;21.12;74.80
14204;BME280;7185;51.854;6.622;2023-10-09T09:18:23;101610.00;;;21.18;74.00
14204;BME280;7185;51.854;6.622;2023-10-09T09:21:01;101626.44;;;20.90;75.16
14204;BME280;7185;51.854;6.622;2023-10-09T09:23:34;101632.59;;;20.90;75.08
14204;BME280;7185;51.854;6.622;2023-10-09T09:26:08;101640.84;;;21.05;74.81
14204;BME280;7185;51.854;6.622;2023-10-09T09:28:51;101661.19;;;21.07;74.54
14204;BME280;7185;51.854;6.622;2023-10-09T09:31:25;101658.00;;;21.18;74.31
14204;BME280;7185;51.854;6.622;2023-10-09T09:33:57;101650.09;;;21.36;73.39
14204;BME280;7185;51.854;6.622;2023-10-09T09:36:34;101636.97;;;21.50;73.07
14204;BME280;7185;51.854;6.622;2023-10-09T09:39:06;101645.28;;;21.44;73.46
14204;BME280;7185;51.854;6.622;2023-10-09T09:41:51;101650.00;;;21.56;72.72
14204;BME280;7185;51.854;6.622;2023-10-09T09:44:23;101649.66;;;21.45;72.92
14204;BME280;7185;51.854;6.622;2023-10-09T09:47:02;101660.34;;;21.45;73.37
14204;BME280;7185;51.854;6.622;2023-10-09T09:49:37;101658.84;;;21.58;72.29
14204;BME280;7185;51.854;6.622;2023-10-09T09:52:10;101652.97;;;21.31;73.18
14204;BME280;7185;51.854;6.622;2023-10-09T09:54:42;101648.06;;;21.41;72.60
14204;BME280;7185;51.854;6.622;2023-10-09T09:57:17;101640.88;;;21.43;73.46
14204;BME280;7185;51.854;6.622;2023-10-09T09:59:56;101634.84;;;21.58;72.93
14204;BME280;7185;51.854;6.622;2023-10-09T10:02:36;101636.81;;;21.72;72.57
14204;BME280;7185;51.854;6.622;2023-10-09T10:05:11;101634.81;;;21.77;72.52
14204;BME280;7185;51.854;6.622;2023-10-09T10:07:46;101643.72;;;21.95;71.63
14204;BME280;7185;51.854;6.622;2023-10-09T10:10:36;101639.22;;;21.96;71.21
14204;BME280;7185;51.854;6.622;2023-10-09T10:13:56;101640.03;;;21.98;71.43
14204;BME280;7185;51.854;6.622;2023-10-09T10:16:30;101647.91;;;21.82;72.51
14204;BME280;7185;51.854;6.622;2023-10-09T10:19:05;101654.03;;;21.84;72.01
14204;BME280;7185;51.854;6.622;2023-10-09T10:21:52;101658.75;;;21.79;72.66
14204;BME280;7185;51.854;6.622;2023-10-09T10:24:41;101643.41;;;22.02;71.54
14204;BME280;7185;51.854;6.622;2023-10-09T10:27:29;101636.09;;;22.05;71.65
14204;BME280;7185;51.854;6.622;2023-10-09T10:30:30;101636.34;;;22.01;71.91
14204;BME280;7185;51.854;6.622;2023-10-09T10:33:19;101640.09;;;21.96;72.15
14204;BME280;7185;51.854;6.622;2023-10-09T10:35:53;101644.00;;;21.89;72.47
14204;BME280;7185;51.854;6.622;2023-10-09T10:38:28;101643.53;;;21.81;72.89
14204;BME280;7185;51.854;6.622;2023-10-09T10:41:17;101648.25;;;22.11;71.95
14204;BME280;7185;51.854;6.622;2023-10-09T10:43:52;101654.41;;;21.95;72.99
14204;BME280;7185;51.854;6.622;2023-10-09T10:46:31;101652.50;;;21.97;72.76
14204;BME280;7185;51.854;6.622;2023-10-09T10:49:08;101661.44;;;21.96;72.90
14204;BME280;7185;51.854;6.622;2023-10-09T10:51:55;101645.06;;;22.22;72.06
14204;BME280;7185;51.854;6.622;2023-10-09T10:54:45;101646.34;;;22.50;71.24
14204;BME280;7185;51.854;6.622;2023-10-09T10:57:18;101650.97;;;22.46;71.27
14204;BME280;7185;51.854;6.622;2023-10-09T10:59:59;101643.75;;;22.31;71.51
14204;BME280;7185;51.854;6.622;2023-10-09T11:02:46;101647.19;;;22.33;71.70
14204;BME280;7185;51.854;6.622;2023-10-09T11:05:18;101641.84;;;22.33;71.65
14204;BME280;7185;51.854;6.622;2023-10-09T11:07:57;101646.56;;;22.45;70.95
14204;BME280;7185;51.854;6.622;2023-10-09T11:10:32;101651.31;;;22.57;70.90
14204;BME280;7185;51.854;6.622;2023-10-09T11:13:06;101653.50;;;22.49;71.10
14204;BME280;7185;51.854;6.622;2023-10-09T11:16:00;101656.47;;;22.60;71.15
14204;BME280;7185;51.854;6.622;2023-10-09T11:19:12;101651.63;;;22.51;71.72
14204;BME280;7185;51.854;6.622;2023-10-09T11:21:54;101650.31;;;22.76;71.12
14204;BME280;7185;51.854;6.622;2023-10-09T11:24:50;101650.03;;;22.47;71.57
14204;BME280;7185;51.854;6.622;2023-10-09T11:27:45;101643.22;;;22.92;70.14
14204;BME280;7185;51.854;6.622;2023-10-09T11:30:31;101635.81;;;22.80;70.53
14204;BME280;7185;51.854;6.622;2023-10-09T11:33:05;101640.72;;;23.05;69.91
14204;BME280;7185;51.854;6.622;2023-10-09T11:35:54;101639.81;;;22.73;70.60
14204;BME280;7185;51.854;6.622;2023-10-09T11:38:35;101629.84;;;22.92;70.03
14204;BME280;7185;51.854;6.622;2023-10-09T11:41:12;101621.50;;;23.15;69.85
14204;BME280;7185;51.854;6.622;2023-10-09T11:43:51;101621.09;;;23.22;69.38
14204;BME280;7185;51.854;6.622;2023-10-09T11:46:35;101629.66;;;23.45;68.64
14204;BME280;7185;51.854;6.622;2023-10-09T11:49:18;101627.22;;;23.73;68.06
14204;BME280;7185;51.854;6.622;2023-10-09T11:55:29;101632.31;;;23.77;67.04
14204;BME280;7185;51.854;6.622;2023-10-09T11:58:03;101625.41;;;23.73;66.68
14204;BME280;7185;51.854;6.622;2023-10-09T12:00:37;101635.00;;;23.61;67.52
14204;BME280;7185;51.854;6.622;2023-10-09T12:11:11;101655.97;;;24.01;66.78
14204;BME280;7185;51.854;6.622;2023-10-09T12:13:44;101646.50;;;24.26;65.94
14204;BME280;7185;51.854;6.622;2023-10-09T12:16:16;101652.63;;;24.28;65.95
14204;BME280;7185;51.854;6.622;2023-10-09T12:18:48;101646.91;;;24.34;65.00
14204;BME280;7185;51.854;6.622;2023-10-09T12:21:25;101645.78;;;24.53;64.86
14204;BME280;7185;51.854;6.622;2023-10-09T12:24:00;101633.56;;;24.63;64.25
14204;BME280;7185;51.854;6.622;2023-10-09T12:26:33;101642.91;;;24.41;64.38
14204;BME280;7185;51.854;6.622;2023-10-09T12:29:05;101635.44;;;24.46;64.64
14204;BME280;7185;51.854;6.622;2023-10-09T12:31:41;101631.91;;;24.60;64.66
14204;BME280;7185;51.854;6.622;2023-10-09T12:34:15;101640.50;;;24.06;64.89
14204;BME280;7185;51.854;6.622;2023-10-09T12:36:47;101640.88;;;24.30;65.43
14204;BME280;7185;51.854;6.622;2023-10-09T12:39:20;101639.72;;;24.04;65.76
14204;BME280;7185;51.854;6.622;2023-10-09T12:41:53;101632.38;;;23.92;66.30
14204;BME280;7185;51.854;6.622;2023-10-09T12:44:25;101633.69;;;23.68;67.49
14204;BME280;7185;51.854;6.622;2023-10-09T12:46:57;101632.66;;;23.87;66.57
14204;BME280;7185;51.854;6.622;2023-10-09T12:49:33;101621.78;;;23.74;67.03
14204;BME280;7185;51.854;6.622;2023-10-09T12:52:08;101605.28;;;23.82;67.12
14204;BME280;7185;51.854;6.622;2023-10-09T12:54:45;101616.78;;;23.68;67.98
14204;BME280;7185;51.854;6.622;2023-10-09T12:57:19;101625.94;;;23.64;67.48
14204;BME280;7185;51.854;6.622;2023-10-09T12:59:50;101617.97;;;23.78;67.51
14204;BME280;7185;51.854;6.622;2023-10-09T13:02:22;101626.34;;;23.88;67.17
14204;BME280;7185;51.854;6.622;2023-10-09T13:04:59;101618.06;;;23.77;67.41
14204;BME280;7185;51.854;6.622;2023-10-09T13:07:34;101617.13;;;23.62;67.89
14204;BME280;7185;51.854;6.622;2023-10-09T13:10:07;101615.53;;;23.90;67.47
14204;BME280;7185;51.854;6.622;2023-10-09T13:12:45;101620.41;;;23.67;67.93
14204;BME280;7185;51.854;6.622;2023-10-09T13:15:16;101609.19;;;23.44;68.33
14204;BME280;7185;51.854;6.622;2023-10-09T13:17:51;101618.69;;;23.50;68.97
14204;BME280;7185;51.854;6.622;2023-10-09T13:20:23;101612.38;;;23.67;67.99
14204;BME280;7185;51.854;6.622;2023-10-09T13:22:57;101617.13;;;23.62;68.45
14204;BME280;7185;51.854;6.622;2023-10-09T13:25:28;101612.97;;;23.72;68.41
14204;BME280;7185;51.854;6.622;2023-10-09T13:28:11;101604.25;;;23.84;68.03
14204;BME280;7185;51.854;6.622;2023-10-09T13:30:51;101602.13;;;23.90;67.87
14204;BME280;7185;51.854;6.622;2023-10-09T13:33:22;101602.38;;;24.01;67.13
14204;BME280;7185;51.854;6.622;2023-10-09T13:35:54;101604.31;;;23.83;67.38
14204;BME280;7185;51.854;6.622;2023-10-09T13:38:26;101608.69;;;24.00;67.34
14204;BME280;7185;51.854;6.622;2023-10-09T13:40:58;101613.03;;;23.86;67.46
14204;BME280;7185;51.854;6.622;2023-10-09T13:43:33;101616.75;;;23.84;67.72
14204;BME280;7185;51.854;6.622;2023-10-09T13:46:05;101616.94;;;23.81;67.82
14204;BME280;7185;51.854;6.622;2023-10-09T13:48:37;101620.59;;;23.64;67.86
14204;BME280;7185;51.854;6.622;2023-10-09T13:51:12;101623.63;;;23.58;68.30
14204;BME280;7185;51.854;6.622;2023-10-09T13:53:47;101623.44;;;23.45;68.74
14204;BME280;7185;51.854;6.622;2023-10-09T13:56:20;101616.63;;;23.39;68.83
14204;BME280;7185;51.854;6.622;2023-10-09T13:58:53;101625.25;;;23.44;68.85
14204;BME280;7185;51.854;6.622;2023-10-09T14:03:59;101626.72;;;23.34;69.24
14204;BME280;7185;51.854;6.622;2023-10-09T14:06:31;101626.97;;;23.61;68.30
14204;BME280;7185;51.854;6.622;2023-10-09T14:09:04;101621.28;;;23.35;69.51
14204;BME280;7185;51.854;6.622;2023-10-09T14:11:38;101624.13;;;23.48;69.36
14204;BME280;7185;51.854;6.622;2023-10-09T14:14:15;101618.78;;;23.48;69.40
14204;BME280;7185;51.854;6.622;2023-10-09T14:16:47;101621.72;;;23.28;69.76
14204;BME280;7185;51.854;6.622;2023-10-09T14:19:19;101621.81;;;23.42;69.53
14204;BME280;7185;51.854;6.622;2023-10-09T14:21:51;101619.28;;;23.39;69.25
14204;BME280;7185;51.854;6.622;2023-10-09T14:24:23;101615.25;;;23.64;68.93
14204;BME280;7185;51.854;6.622;2023-10-09T14:27:03;101613.16;;;23.69;68.71
14204;BME280;7185;51.854;6.622;2023-10-09T14:29:38;101609.94;;;23.78;68.00
14204;BME280;7185;51.854;6.622;2023-10-09T14:32:10;101607.44;;;23.75;68.35
14204;BME280;7185;51.854;6.622;2023-10-09T14:34:44;101621.81;;;23.58;69.44
14204;BME280;7185;51.854;6.622;2023-10-09T14:37:25;101617.13;;;23.62;69.39
14204;BME280;7185;51.854;6.622;2023-10-09T14:40:00;101615.94;;;23.35;69.74